Time;durP1;ratioP1;P1;durP2;ratioP2;P2;SDS_P1;SDS_P2;PMS_P1;PMS_P2;Temp;Humidity;BMP_temperature;BMP_pressure;BME280_temperature;BME280_humidity;BME280_pressure;Samples;Min_cycle;Max_cycle;Signal;HPM_P1;HPM_P2
2022/05/11 00:01:29;;;;;;;7.57;3.60;;;13.60;99.90;;;;;;4956659;29;20049;-83
2022/05/11 00:03:58;;;;;;;9.50;3.53;;;13.60;99.90;;;;;;4939007;29;20059;-86
2022/05/11 00:06:25;;;;;;;7.32;3.60;;;13.70;99.90;;;;;;4939829;29;20090;-83
2022/05/11 00:08:56;;;;;;;7.78;3.33;;;13.60;99.90;;;;;;4939510;29;20130;-84
2022/05/11 00:11:23;;;;;;;6.82;3.30;;;13.70;99.90;;;;;;4939645;29;20102;-80
2022/05/11 00:13:49;;;;;;;6.53;3.03;;;13.70;99.90;;;;;;4939388;29;20235;-81
2022/05/11 00:16:15;;;;;;;5.68;3.13;;;13.70;99.90;;;;;;4939171;29;20530;-81
2022/05/11 00:18:41;;;;;;;5.55;3.25;;;13.70;99.90;;;;;;4939529;29;20130;-83
2022/05/11 00:21:07;;;;;;;5.38;3.30;;;13.70;99.90;;;;;;4956439;29;20043;-83
2022/05/11 00:23:33;;;;;;;4.18;3.08;;;13.70;99.90;;;;;;4939131;29;20520;-83
2022/05/11 00:25:59;;;;;;;8.85;3.65;;;13.70;99.90;;;;;;4923307;29;20090;-89
2022/05/11 00:28:25;;;;;;;6.78;3.35;;;13.70;99.90;;;;;;4939301;29;20133;-84
2022/05/11 00:30:52;;;;;;;5.88;3.47;;;13.70;99.90;;;;;;4938811;29;20476;-83
2022/05/11 00:33:18;;;;;;;9.88;3.40;;;13.70;99.90;;;;;;4938993;29;20547;-84
2022/05/11 00:35:46;;;;;;;7.30;3.45;;;13.70;99.90;;;;;;4939131;29;20039;-82
2022/05/11 00:38:13;;;;;;;10.60;3.70;;;13.70;99.90;;;;;;4938958;29;20043;-83
2022/05/11 00:40:46;;;;;;;6.35;3.75;;;13.60;99.90;;;;;;4923261;29;20047;-83
2022/05/11 00:43:12;;;;;;;6.15;3.38;;;13.60;99.90;;;;;;4938700;29;20035;-82
2022/05/11 00:45:46;;;;;;;6.95;4.00;;;13.60;99.90;;;;;;4938681;29;20046;-83
2022/05/11 00:51:04;;;;;;;4.68;3.20;;;13.60;99.90;;;;;;4938856;29;20077;-83
2022/05/11 00:53:32;;;;;;;11.68;3.90;;;13.60;99.90;;;;;;4955669;29;20126;-83
2022/05/11 00:56:01;;;;;;;9.93;3.30;;;13.60;99.90;;;;;;4955416;29;20043;-84
2022/05/11 00:58:38;;;;;;;8.70;3.70;;;13.60;99.90;;;;;;4938727;29;20069;-84
2022/05/11 01:01:04;;;;;;;9.27;3.95;;;13.50;99.90;;;;;;4955369;29;20481;-83
2022/05/11 01:03:39;;;;;;;10.63;3.90;;;13.50;99.90;;;;;;4938332;29;20047;-84
2022/05/11 01:06:07;;;;;;;7.53;4.05;;;13.60;99.90;;;;;;4922454;29;20134;-82
2022/05/11 01:08:33;;;;;;;7.32;3.53;;;13.60;99.90;;;;;;4955230;29;20764;-83
2022/05/11 01:11:04;;;;;;;8.75;4.00;;;13.70;99.90;;;;;;4938617;29;20154;-80
2022/05/11 01:13:32;;;;;;;6.65;3.67;;;13.50;99.90;;;;;;4938399;29;20041;-80
2022/05/11 01:15:59;;;;;;;8.30;4.35;;;13.50;99.90;;;;;;4938576;29;20069;-81
2022/05/11 01:18:25;;;;;;;11.55;4.10;;;13.50;99.90;;;;;;4938178;29;20043;-81
2022/05/11 01:20:51;;;;;;;7.28;4.20;;;13.50;99.90;;;;;;4955175;29;20121;-80
2022/05/11 01:23:45;;;;;;;7.55;4.55;;;13.50;99.90;;;;;;4954847;29;20082;-81
2022/05/11 01:26:10;;;;;;;7.65;4.22;;;13.60;99.90;;;;;;4938150;29;20078;-83
2022/05/11 01:28:42;;;;;;;7.68;3.67;;;13.60;99.90;;;;;;4937974;29;20082;-83
2022/05/11 01:31:11;;;;;;;7.65;4.60;;;13.60;99.90;;;;;;4938021;29;20047;-83
2022/05/11 01:33:41;;;;;;;11.05;4.70;;;13.60;99.90;;;;;;4937983;29;20104;-83
2022/05/11 01:36:28;;;;;;;5.60;4.10;;;13.60;99.90;;;;;;4937400;29;20050;-83
2022/05/11 01:39:00;;;;;;;9.75;4.50;;;13.60;99.90;;;;;;4937980;29;20087;-82
2022/05/11 01:41:43;;;;;;;10.20;4.47;;;13.60;99.90;;;;;;4938032;29;20079;-83
2022/05/11 01:44:16;;;;;;;6.75;4.40;;;13.70;99.90;;;;;;4954629;29;20520;-83
2022/05/11 01:46:54;;;;;;;9.77;4.25;;;13.60;99.90;;;;;;4938049;29;20050;-83
2022/05/11 01:49:22;;;;;;;7.50;4.05;;;13.60;99.90;;;;;;4937857;29;20047;-83
2022/05/11 01:51:48;;;;;;;8.70;4.28;;;13.60;99.90;;;;;;4954952;29;20175;-83
2022/05/11 01:54:15;;;;;;;6.78;4.60;;;13.70;99.90;;;;;;4937887;29;20503;-80
2022/05/11 01:56:41;;;;;;;6.60;3.88;;;13.60;99.90;;;;;;4954550;29;20412;-81
2022/05/11 01:59:07;;;;;;;6.43;4.20;;;13.60;99.90;;;;;;4937683;29;20043;-80
2022/05/11 02:01:35;;;;;;;10.27;4.07;;;13.70;99.90;;;;;;4954748;29;20424;-81
2022/05/11 02:04:01;;;;;;;9.73;4.35;;;13.60;99.90;;;;;;4954322;29;20476;-81
2022/05/11 02:09:12;;;;;;;10.05;3.95;;;13.70;99.90;;;;;;4937544;29;20057;-80
2022/05/11 02:11:39;;;;;;;8.30;3.75;;;13.60;99.90;;;;;;4921384;29;20058;-82
2022/05/11 02:14:05;;;;;;;9.73;4.07;;;13.70;99.90;;;;;;4937728;29;20051;-80
2022/05/11 02:16:32;;;;;;;8.32;3.47;;;13.70;99.90;;;;;;4921711;29;20171;-80
2022/05/11 02:18:58;;;;;;;7.57;3.95;;;13.70;99.90;;;;;;4937690;29;20043;-80
2022/05/11 02:21:24;;;;;;;8.15;3.70;;;13.80;99.90;;;;;;4954342;29;20070;-80
2022/05/11 02:23:51;;;;;;;8.15;3.60;;;13.60;99.90;;;;;;4937376;29;20047;-80
2022/05/11 02:26:19;;;;;;;6.22;3.33;;;13.70;99.90;;;;;;4937503;29;20496;-83
2022/05/11 02:28:50;;;;;;;7.57;3.78;;;13.70;99.90;;;;;;4937501;29;20377;-83
2022/05/11 02:31:16;;;;;;;6.28;3.53;;;13.70;99.90;;;;;;4937395;29;20087;-82
2022/05/11 02:33:42;;;;;;;6.85;3.58;;;13.70;99.90;;;;;;4954399;29;20051;-83
2022/05/11 02:36:08;;;;;;;8.70;3.45;;;13.70;99.90;;;;;;4954379;29;20054;-83
2022/05/11 02:38:34;;;;;;;7.10;3.47;;;13.60;99.90;;;;;;4954216;29;20122;-83
2022/05/11 02:40:59;;;;;;;8.05;3.85;;;13.60;99.90;;;;;;4937084;29;20039;-82
2022/05/11 02:43:26;;;;;;;5.35;3.63;;;13.60;99.90;;;;;;4937361;29;20078;-82
2022/05/11 02:45:52;;;;;;;7.15;3.35;;;13.60;99.90;;;;;;4954778;28;20122;-86
2022/05/11 02:48:21;;;;;;;8.60;3.90;;;13.60;99.90;;;;;;4941135;29;20091;-83
2022/05/11 02:50:50;;;;;;;9.60;4.22;;;13.70;99.90;;;;;;4957975;29;20398;-83
2022/05/11 02:53:16;;;;;;;6.32;3.90;;;13.60;99.90;;;;;;4940976;29;20051;-83
2022/05/11 02:55:44;;;;;;;7.60;3.88;;;13.70;99.90;;;;;;4940698;29;20051;-83
2022/05/11 02:58:12;;;;;;;7.53;3.67;;;13.70;99.90;;;;;;4957832;29;20094;-83
2022/05/11 03:00:40;;;;;;;9.25;3.78;;;13.60;99.90;;;;;;4940733;29;20090;-83
2022/05/11 03:03:07;;;;;;;7.30;3.90;;;13.60;99.90;;;;;;4940746;29;20061;-82
2022/05/11 03:05:34;;;;;;;9.57;4.15;;;13.70;99.90;;;;;;4940479;29;20043;-85
2022/05/11 03:08:00;;;;;;;7.03;3.58;;;13.70;99.90;;;;;;4940488;29;20058;-83
2022/05/11 03:10:26;;;;;;;6.65;3.67;;;13.60;99.90;;;;;;4957436;29;20126;-83
2022/05/11 03:12:52;;;;;;;11.02;4.25;;;13.60;99.90;;;;;;4957508;29;20485;-80
2022/05/11 03:15:18;;;;;;;7.55;3.72;;;13.70;99.90;;;;;;4957373;29;20031;-83
2022/05/11 03:17:44;;;;;;;11.00;3.70;;;13.60;99.90;;;;;;4940007;29;20929;-82
2022/05/11 03:20:10;;;;;;;8.85;4.00;;;13.70;99.90;;;;;;4940236;29;20473;-82
2022/05/11 03:22:36;;;;;;;8.27;4.15;;;13.60;99.90;;;;;;4957111;29;20039;-80
2022/05/11 03:25:03;;;;;;;6.85;3.88;;;13.60;99.90;;;;;;4939699;29;20388;-80
2022/05/11 03:27:28;;;;;;;8.73;3.63;;;13.60;99.90;;;;;;4957374;29;20047;-81
2022/05/11 03:29:56;;;;;;;7.00;3.75;;;13.60;99.90;;;;;;4939773;29;20093;-85
2022/05/11 03:35:08;;;;;;;8.18;3.70;;;13.60;99.90;;;;;;4940080;29;20137;-80
2022/05/11 03:37:34;;;;;;;11.10;4.18;;;13.60;99.90;;;;;;4939736;29;20047;-80
2022/05/11 03:40:01;;;;;;;5.40;3.75;;;13.60;99.90;;;;;;4939699;29;20098;-85
2022/05/11 03:42:31;;;;;;;8.85;3.88;;;13.60;99.90;;;;;;4939824;29;20047;-80
2022/05/11 03:45:06;;;;;;;14.68;4.18;;;13.60;99.90;;;;;;4956875;29;20043;-80
2022/05/11 03:47:31;;;;;;;10.57;4.43;;;13.60;99.90;;;;;;4940047;29;20046;-80
2022/05/11 03:49:57;;;;;;;8.18;4.28;;;13.60;99.90;;;;;;4939342;29;20397;-81
2022/05/11 03:52:23;;;;;;;8.60;4.30;;;13.60;99.90;;;;;;4939770;29;20051;-80
2022/05/11 03:54:48;;;;;;;10.25;3.78;;;13.60;99.90;;;;;;4956775;29;20054;-80
2022/05/11 03:57:17;;;;;;;9.10;4.47;;;13.60;99.90;;;;;;4938946;28;20516;-80
2022/05/11 03:59:42;;;;;;;10.50;4.05;;;13.50;99.90;;;;;;4956061;29;20155;-82
2022/05/11 04:02:08;;;;;;;8.85;4.40;;;13.60;99.90;;;;;;4956417;29;20074;-80
2022/05/11 04:04:34;;;;;;;8.65;4.30;;;13.50;99.90;;;;;;4956116;29;20073;-80
2022/05/11 04:06:59;;;;;;;9.73;4.40;;;13.50;99.90;;;;;;4939368;29;20047;-80
2022/05/11 04:09:25;;;;;;;11.63;4.25;;;13.50;99.90;;;;;;4956672;29;20049;-81
2022/05/11 04:11:50;;;;;;;12.48;4.25;;;13.50;99.90;;;;;;4939624;29;20369;-79
2022/05/11 04:14:16;;;;;;;10.02;4.50;;;13.50;99.90;;;;;;4923812;29;20055;-80
2022/05/11 04:16:42;;;;;;;9.32;4.20;;;13.50;99.90;;;;;;4939303;29;20452;-80
2022/05/11 04:19:07;;;;;;;9.70;4.10;;;13.50;99.90;;;;;;4956370;29;20127;-81
2022/05/11 04:21:33;;;;;;;10.05;4.47;;;13.50;99.90;;;;;;4939020;29;20054;-80
2022/05/11 04:23:59;;;;;;;11.30;4.28;;;13.50;99.90;;;;;;4956208;29;20473;-80
2022/05/11 04:26:25;;;;;;;13.23;4.90;;;13.40;99.90;;;;;;4956303;29;20085;-84
2022/05/11 04:28:50;;;;;;;12.05;4.22;;;13.40;99.90;;;;;;4939224;29;20458;-81
2022/05/11 04:31:16;;;;;;;12.77;5.03;;;13.40;99.90;;;;;;4939191;29;20102;-80
2022/05/11 04:33:42;;;;;;;9.90;4.25;;;13.30;99.90;;;;;;4939200;29;20043;-80
2022/05/11 04:36:08;;;;;;;11.43;4.30;;;13.40;99.90;;;;;;4939085;29;20548;-80
2022/05/11 04:38:34;;;;;;;11.25;4.38;;;13.40;99.90;;;;;;4938766;29;20456;-80
2022/05/11 04:41:00;;;;;;;12.52;5.07;;;13.50;99.90;;;;;;4956167;29;20081;-80
2022/05/11 04:43:26;;;;;;;8.77;4.68;;;13.50;99.90;;;;;;4956081;29;20126;-81
2022/05/11 04:45:52;;;;;;;13.43;5.03;;;13.60;99.90;;;;;;4938654;29;20138;-79
2022/05/11 04:48:18;;;;;;;9.30;4.60;;;13.70;99.90;;;;;;4955750;29;20043;-80
2022/05/11 04:50:45;;;;;;;9.10;4.80;;;13.70;99.90;;;;;;4938688;29;20090;-79
2022/05/11 04:53:14;;;;;;;8.80;4.70;;;13.80;99.90;;;;;;4938662;29;20397;-81
2022/05/11 04:55:40;;;;;;;10.95;4.70;;;13.70;99.90;;;;;;4955784;29;20043;-80
2022/05/11 04:58:06;;;;;;;9.85;4.57;;;13.80;99.90;;;;;;4938774;29;20051;-80
2022/05/11 05:00:34;;;;;;;9.45;5.28;;;13.80;99.90;;;;;;4937973;29;20373;-80
2022/05/11 05:03:02;;;;;;;9.00;4.90;;;13.80;99.90;;;;;;4938314;29;20163;-80
2022/05/11 05:05:28;;;;;;;8.90;4.15;;;13.80;99.90;;;;;;4934985;29;20093;-83
2022/05/11 05:07:54;;;;;;;8.40;4.60;;;13.80;99.90;;;;;;4971571;28;20523;-80
2022/05/11 05:10:21;;;;;;;10.40;4.57;;;13.90;99.90;;;;;;4954290;28;20051;-79
2022/05/11 05:12:47;;;;;;;12.43;5.07;;;13.90;99.90;;;;;;4972778;28;20049;-80
2022/05/11 05:15:14;;;;;;;10.45;5.30;;;13.90;99.90;;;;;;4957897;28;20078;-83
2022/05/11 05:17:40;;;;;;;11.73;4.90;;;14.00;99.90;;;;;;4957360;28;20480;-80
2022/05/11 05:20:07;;;;;;;11.13;5.00;;;14.00;99.90;;;;;;4932488;28;20193;-80
2022/05/11 05:22:37;;;;;;;10.18;5.43;;;14.10;99.90;;;;;;4938376;28;20039;-80
2022/05/11 05:25:04;;;;;;;11.88;4.97;;;14.10;99.90;;;;;;4940811;28;20047;-83
2022/05/11 05:27:29;;;;;;;12.18;5.10;;;14.20;99.90;;;;;;4964018;28;20134;-82
2022/05/11 05:32:42;;;;;;;9.20;4.45;;;14.30;99.90;;;;;;4944983;28;20056;-85
2022/05/11 05:35:12;;;;;;;12.30;5.03;;;14.30;99.90;;;;;;4944957;29;20043;-80
2022/05/11 05:37:38;;;;;;;13.75;5.30;;;14.40;99.90;;;;;;4937336;29;20043;-80
2022/05/11 05:40:05;;;;;;;9.27;4.50;;;14.50;99.90;;;;;;4937759;29;20098;-81
2022/05/11 05:42:31;;;;;;;10.63;4.63;;;14.70;99.90;;;;;;4938084;29;20047;-80
2022/05/11 05:44:57;;;;;;;9.30;4.63;;;14.80;99.90;;;;;;4937797;29;20042;-80
2022/05/11 05:47:22;;;;;;;8.05;4.35;;;15.00;99.90;;;;;;4937877;29;20078;-79
2022/05/11 05:49:48;;;;;;;8.45;4.20;;;15.00;99.90;;;;;;4954659;29;20086;-81
2022/05/11 05:52:23;;;;;;;9.05;4.63;;;15.10;99.90;;;;;;4954582;29;20043;-80
2022/05/11 05:54:50;;;;;;;9.55;3.92;;;15.10;99.90;;;;;;4954855;29;20058;-80
2022/05/11 05:57:16;;;;;;;9.40;4.20;;;15.10;99.90;;;;;;4937535;29;20043;-85
2022/05/11 05:59:42;;;;;;;8.68;4.00;;;15.10;99.90;;;;;;4954775;29;20035;-82
2022/05/11 06:02:13;;;;;;;9.68;4.32;;;15.10;99.90;;;;;;4937557;29;20050;-80
2022/05/11 06:04:50;;;;;;;11.77;4.47;;;15.10;99.90;;;;;;4937129;29;20055;-80
2022/05/11 06:07:18;;;;;;;7.95;3.47;;;15.20;99.90;;;;;;4954676;29;20368;-81
2022/05/11 06:09:44;;;;;;;9.13;4.10;;;15.30;99.90;;;;;;4937620;29;20039;-80
2022/05/11 06:12:12;;;;;;;7.80;3.97;;;15.40;99.90;;;;;;4937642;29;20047;-80
2022/05/11 06:14:38;;;;;;;9.35;3.78;;;15.50;99.90;;;;;;4937547;29;20050;-80
2022/05/11 06:17:11;;;;;;;12.85;4.28;;;15.60;99.90;;;;;;4954393;29;20043;-80
2022/05/11 06:19:39;;;;;;;9.60;3.85;;;15.70;99.90;;;;;;4954614;29;20039;-80
2022/05/11 06:22:05;;;;;;;10.20;4.03;;;15.70;99.90;;;;;;4957287;28;20396;-80
2022/05/11 06:24:30;;;;;;;11.15;3.67;;;15.80;99.90;;;;;;4941357;29;20035;-80
2022/05/11 06:26:56;;;;;;;9.13;3.63;;;15.90;99.90;;;;;;4958563;29;20110;-83
2022/05/11 06:29:22;;;;;;;8.00;3.20;;;16.10;99.90;;;;;;4958353;29;20452;-83
2022/05/11 06:31:48;;;;;;;8.32;3.70;;;16.30;99.90;;;;;;4958102;29;20054;-84
2022/05/11 06:34:15;;;;;;;10.73;3.65;;;16.60;99.90;;;;;;4941079;29;20047;-82
2022/05/11 06:36:42;;;;;;;7.38;2.97;;;16.70;99.90;;;;;;4941327;29;20421;-83
2022/05/11 06:39:08;;;;;;;7.07;2.55;;;16.80;99.90;;;;;;4925314;29;20121;-80
2022/05/11 06:41:34;;;;;;;10.10;2.70;;;16.90;99.90;;;;;;4941221;29;20129;-82
2022/05/11 06:43:59;;;;;;;13.88;3.05;;;17.20;99.90;;;;;;4941028;29;20411;-80
2022/05/11 06:46:25;;;;;;;7.85;2.33;;;17.20;99.90;;;;;;4941194;29;20644;-82
2022/05/11 06:48:52;;;;;;;8.05;1.90;;;17.30;99.90;;;;;;4940882;29;20043;-80
2022/05/11 06:51:19;;;;;;;8.40;2.10;;;17.40;99.90;;;;;;4958327;29;20054;-81
2022/05/11 06:59:22;;;;;;;12.13;2.22;;;18.00;99.90;;;;;;4940563;29;20047;-80
2022/05/11 07:02:06;;;;;;;7.90;1.98;;;18.10;99.90;;;;;;4925215;29;20043;-81
2022/05/11 07:04:39;;;;;;;6.88;1.83;;;18.50;99.90;;;;;;4924365;29;20481;-81
2022/05/11 07:07:05;;;;;;;4.93;1.63;;;18.50;99.90;;;;;;4957613;29;20083;-81
2022/05/11 07:09:33;;;;;;;8.20;1.70;;;18.60;99.90;;;;;;4940691;29;20388;-81
2022/05/11 07:12:21;;;;;;;6.57;1.80;;;18.80;99.90;;;;;;4940767;29;20445;-81
2022/05/11 07:14:57;;;;;;;23.45;2.20;;;18.80;99.90;;;;;;4957690;29;20393;-82
2022/05/11 07:17:34;;;;;;;6.25;1.83;;;18.80;98.40;;;;;;4940732;29;20052;-80
2022/05/11 07:20:09;;;;;;;6.15;1.80;;;18.80;96.90;;;;;;4940282;29;20511;-81
2022/05/11 07:22:35;;;;;;;5.03;1.67;;;19.20;94.50;;;;;;4940393;29;20047;-81
2022/05/11 07:25:00;;;;;;;6.03;1.40;;;19.50;94.00;;;;;;4940480;29;20050;-81
2022/05/11 07:27:26;;;;;;;6.05;1.85;;;19.50;92.40;;;;;;4957394;29;20094;-80
2022/05/11 07:29:54;;;;;;;8.95;1.98;;;19.30;93.00;;;;;;4940219;29;20089;-81
2022/05/11 07:32:21;;;;;;;11.35;2.08;;;19.10;93.00;;;;;;4939371;29;20062;-80
2022/05/11 07:34:47;;;;;;;5.53;1.70;;;19.10;93.10;;;;;;4940102;29;20059;-82
2022/05/11 07:37:13;;;;;;;7.40;1.65;;;19.10;92.40;;;;;;4957032;29;20050;-81
2022/05/11 07:39:39;;;;;;;7.57;1.77;;;19.10;92.20;;;;;;4957224;29;20106;-82
2022/05/11 07:42:05;;;;;;;5.25;1.55;;;19.10;93.20;;;;;;4940137;29;20436;-81
2022/05/11 07:44:31;;;;;;;7.38;1.80;;;19.00;92.10;;;;;;4940118;29;20039;-81
2022/05/11 07:46:57;;;;;;;6.93;1.60;;;18.90;92.50;;;;;;4956795;29;20476;-82
2022/05/11 07:49:22;;;;;;;6.18;1.25;;;18.80;92.90;;;;;;4940225;29;20039;-81
2022/05/11 07:51:50;;;;;;;8.45;1.80;;;18.70;93.00;;;;;;4939675;29;20051;-81
2022/05/11 07:54:16;;;;;;;5.10;1.50;;;18.60;93.00;;;;;;4924006;29;20142;-82
2022/05/11 08:02:10;;;;;;;5.60;1.25;;;18.40;93.70;;;;;;4939620;29;20054;-83
2022/05/11 08:04:36;;;;;;;6.72;1.60;;;19.10;90.60;;;;;;4939203;29;20047;-83
2022/05/11 08:07:02;;;;;;;7.43;1.73;;;20.20;81.70;;;;;;4939754;29;20047;-82
2022/05/11 08:09:28;;;;;;;4.63;1.27;;;21.10;74.10;;;;;;4940036;29;20388;-81
2022/05/11 08:11:56;;;;;;;5.00;1.30;;;22.10;68.70;;;;;;4923844;29;20047;-81
2022/05/11 08:14:23;;;;;;;5.88;1.50;;;23.20;62.00;;;;;;4939518;29;20051;-82
2022/05/11 08:16:52;;;;;;;6.47;1.95;;;23.60;58.70;;;;;;4939343;29;20082;-82
2022/05/11 08:19:26;;;;;;;4.93;1.40;;;23.50;58.60;;;;;;4939669;29;20094;-82
2022/05/11 08:21:54;;;;;;;4.93;1.10;;;23.80;56.10;;;;;;4939398;29;20039;-84
2022/05/11 08:24:21;;;;;;;4.30;1.52;;;24.00;54.80;;;;;;4939325;29;20047;-82
2022/05/11 08:26:50;;;;;;;8.43;1.60;;;24.30;55.60;;;;;;4939348;29;20042;-83
2022/05/11 08:33:19;;;;;;;6.90;1.63;;;25.00;53.40;;;;;;4939342;29;20043;-83
2022/05/11 08:34:49;;;;;;;9.32;1.45;;;24.90;51.50;;;;;;4939183;29;20385;-82
2022/05/11 08:37:15;;;;;;;8.18;1.70;;;25.00;51.10;;;;;;4956088;29;20046;-83
2022/05/11 08:39:41;;;;;;;5.90;1.65;;;25.00;50.60;;;;;;4939075;29;20430;-83
2022/05/11 08:42:07;;;;;;;7.63;1.98;;;25.20;50.30;;;;;;4938945;29;20043;-83
2022/05/11 08:44:36;;;;;;;6.18;1.55;;;25.60;50.50;;;;;;4955681;28;20035;-82
2022/05/11 08:47:16;;;;;;;10.27;1.85;;;25.90;50.00;;;;;;4939027;29;20043;-82
2022/05/11 08:50:09;;;;;;;6.63;1.23;;;26.30;47.40;;;;;;4955875;29;20051;-82
2022/05/11 08:52:40;;;;;;;5.50;1.50;;;26.40;45.40;;;;;;4955583;29;20584;-82
2022/05/11 08:55:28;;;;;;;7.97;1.60;;;25.50;47.70;;;;;;4938974;29;20055;-82
2022/05/11 08:57:54;;;;;;;11.68;1.67;;;24.60;48.50;;;;;;4939087;29;20047;-82
2022/05/11 09:00:23;;;;;;;9.45;1.40;;;24.10;50.40;;;;;;4955522;29;20043;-82
2022/05/11 09:03:00;;;;;;;6.72;1.30;;;23.80;51.50;;;;;;4938663;29;20055;-81
2022/05/11 09:05:34;;;;;;;9.90;1.73;;;23.80;51.80;;;;;;4938418;29;20090;-83
2022/05/11 09:07:59;;;;;;;8.73;1.60;;;23.90;51.90;;;;;;4938566;29;20047;-83
2022/05/11 09:10:34;;;;;;;7.70;1.50;;;24.20;50.80;;;;;;4955851;29;20047;-82
2022/05/11 09:13:09;;;;;;;8.88;1.60;;;24.00;51.10;;;;;;4955386;29;20083;-82
2022/05/11 09:15:53;;;;;;;6.47;1.60;;;23.90;51.40;;;;;;4938482;29;20046;-82
2022/05/11 09:18:21;;;;;;;6.55;1.33;;;24.20;51.30;;;;;;4938551;29;20049;-82
2022/05/11 09:20:52;;;;;;;4.75;1.48;;;24.70;50.60;;;;;;4938510;29;20428;-81
2022/05/11 09:23:40;;;;;;;4.00;1.20;;;25.00;49.50;;;;;;4938376;29;20055;-82
2022/05/11 09:26:16;;;;;;;6.75;1.35;;;24.90;49.60;;;;;;4955045;29;20039;-84
2022/05/11 09:28:47;;;;;;;3.97;1.20;;;25.10;49.00;;;;;;4922643;29;20066;-82
2022/05/11 09:31:24;;;;;;;5.63;1.42;;;25.60;48.60;;;;;;4938085;29;20468;-83
2022/05/11 09:34:04;;;;;;;7.80;1.95;;;25.80;48.10;;;;;;4938418;29;20373;-84
2022/05/11 09:36:37;;;;;;;;;;;26.70;47.60;;;;;;4938519;29;20039;-84
2022/05/11 09:39:20;;;;;;;7.05;1.63;;;27.40;46.30;;;;;;4937785;29;20379;-83
2022/05/11 09:41:49;;;;;;;6.93;1.45;;;27.60;45.90;;;;;;4953831;29;20051;-85
2022/05/11 09:44:21;;;;;;;7.30;1.00;;;27.90;43.70;;;;;;4937965;29;20122;-83
2022/05/11 09:46:48;;;;;;;8.07;1.55;;;27.90;42.30;;;;;;4938012;29;20454;-84
2022/05/11 09:49:17;;;;;;;7.68;1.20;;;27.50;42.90;;;;;;4937234;29;20051;-83
2022/05/11 09:51:45;;;;;;;9.88;1.38;;;27.20;43.10;;;;;;4937900;29;20137;-84
2022/05/11 09:54:22;;;;;;;3.88;1.25;;;27.20;43.40;;;;;;4937778;29;20126;-83
2022/05/11 09:57:03;;;;;;;3.42;0.98;;;27.30;41.90;;;;;;4937201;29;20054;-81
2022/05/11 09:59:37;;;;;;;4.05;1.10;;;27.40;42.00;;;;;;4937768;29;20051;-84
2022/05/11 10:02:22;;;;;;;5.78;1.13;;;27.50;42.10;;;;;;4937542;29;20059;-84
2022/05/11 10:05:05;;;;;;;4.20;1.23;;;27.90;41.80;;;;;;4954340;29;20094;-83
2022/05/11 10:07:45;;;;;;;8.25;1.00;;;28.10;41.30;;;;;;4937383;29;20089;-83
2022/05/11 10:10:31;;;;;;;5.60;1.10;;;28.20;41.10;;;;;;4937547;29;20102;-82
2022/05/11 10:13:23;;;;;;;4.55;1.05;;;28.10;40.70;;;;;;4954744;29;20054;-83
2022/05/11 10:21:50;;;;;;;4.78;1.30;;;26.90;42.20;;;;;;4937667;29;20126;-83
2022/05/11 10:24:37;;;;;;;3.47;1.38;;;27.40;41.30;;;;;;4937554;29;20049;-84
2022/05/11 10:27:18;;;;;;;5.30;1.17;;;27.90;41.00;;;;;;4937381;29;20043;-86
2022/05/11 10:29:55;;;;;;;6.07;1.25;;;28.10;40.60;;;;;;4954439;29;20054;-83
2022/05/11 10:32:33;;;;;;;4.47;0.80;;;27.90;40.40;;;;;;4937483;29;20392;-83
2022/05/11 10:35:13;;;;;;;6.07;1.13;;;28.00;40.70;;;;;;4937367;29;20400;-85
2022/05/11 10:37:54;;;;;;;5.43;1.15;;;28.60;39.80;;;;;;4920877;29;20066;-85
2022/05/11 10:40:44;;;;;;;5.20;0.90;;;28.90;40.00;;;;;;4937472;29;20432;-83
2022/05/11 10:43:26;;;;;;;4.55;0.90;;;29.30;38.90;;;;;;4954364;29;20079;-84
2022/05/11 10:46:18;;;;;;;4.55;1.08;;;29.50;39.10;;;;;;4954022;29;20037;-84
2022/05/11 10:49:06;;;;;;;4.22;1.10;;;28.70;39.60;;;;;;4860685;29;20554;-85
2022/05/11 10:51:40;;;;;;;4.18;1.02;;;27.70;41.50;;;;;;4876762;29;20084;-83
2022/05/11 10:54:33;;;;;;;5.03;0.80;;;28.20;41.60;;;;;;4876615;29;20499;-84
2022/05/11 10:57:14;;;;;;;4.90;1.00;;;29.00;39.40;;;;;;4876384;29;20061;-83
2022/05/11 11:00:08;;;;;;;4.60;1.00;;;29.20;38.40;;;;;;4876077;29;20479;-84
2022/05/11 11:02:51;;;;;;;5.60;1.00;;;29.20;39.10;;;;;;4876348;29;20131;-85
2022/05/11 11:05:23;;;;;;;5.88;1.25;;;29.40;39.50;;;;;;4876023;29;20110;-83
2022/05/11 11:07:52;;;;;;;3.50;1.10;;;29.50;38.90;;;;;;4878399;29;20053;-83
2022/05/11 11:10:34;;;;;;;6.97;1.30;;;29.70;38.60;;;;;;4879152;29;20057;-85
2022/05/11 11:13:22;;;;;;;4.65;1.63;;;29.80;38.50;;;;;;4879948;29;20178;-84
2022/05/11 11:15:50;;;;;;;7.18;1.20;;;29.90;39.10;;;;;;4879367;29;20392;-84
2022/05/11 11:18:28;;;;;;;7.15;1.60;;;29.60;39.30;;;;;;4879606;29;20128;-84
2022/05/11 11:20:58;;;;;;;6.95;1.65;;;29.10;40.20;;;;;;4879698;29;20123;-83
2022/05/11 11:23:24;;;;;;;7.30;1.30;;;29.00;40.70;;;;;;4879521;29;20057;-83
2022/05/11 11:25:51;;;;;;;6.32;1.38;;;29.20;40.60;;;;;;4918397;29;20128;-83
2022/05/11 11:28:19;;;;;;;5.18;1.23;;;29.80;40.20;;;;;;4940568;29;20129;-83
2022/05/11 11:31:00;;;;;;;7.50;1.50;;;30.00;40.40;;;;;;4957399;29;20054;-85
2022/05/11 11:33:30;;;;;;;9.70;1.80;;;30.50;40.20;;;;;;4924713;29;20050;-83
2022/05/11 11:35:57;;;;;;;10.05;1.55;;;30.40;39.80;;;;;;4956277;29;20070;-83
2022/05/11 11:38:41;;;;;;;6.38;1.33;;;30.50;39.60;;;;;;4940115;29;20062;-85
2022/05/11 11:41:23;;;;;;;7.20;1.88;;;30.70;39.30;;;;;;4939844;29;20129;-84
2022/05/11 11:43:49;;;;;;;4.72;1.27;;;30.80;38.80;;;;;;4924264;29;20079;-84
2022/05/11 11:46:26;;;;;;;8.48;1.98;;;30.60;39.40;;;;;;4956940;29;20460;-83
2022/05/11 11:49:08;;;;;;;5.88;1.55;;;30.70;38.60;;;;;;4924239;29;20047;-86
2022/05/11 11:51:51;;;;;;;7.80;1.50;;;30.40;38.80;;;;;;4940091;29;20054;-84
2022/05/11 11:54:25;;;;;;;9.93;1.92;;;30.80;40.10;;;;;;4940076;29;20130;-83
2022/05/11 11:56:54;;;;;;;6.90;1.40;;;31.20;38.80;;;;;;4939823;29;20051;-84
2022/05/11 11:59:22;;;;;;;8.93;1.65;;;31.20;39.00;;;;;;4939788;29;20043;-84
2022/05/11 12:01:51;;;;;;;6.38;1.55;;;31.20;37.50;;;;;;4940051;29;20178;-83
2022/05/11 12:04:36;;;;;;;5.07;1.48;;;30.90;37.60;;;;;;4939614;29;20055;-84
2022/05/11 12:15:33;;;;;;;8.32;1.55;;;31.50;38.50;;;;;;4939662;29;20058;-85
2022/05/11 12:17:59;;;;;;;4.70;1.52;;;31.90;38.10;;;;;;4956654;29;20511;-83
2022/05/11 12:20:39;;;;;;;4.53;1.30;;;31.90;37.00;;;;;;4938531;29;20050;-85
2022/05/11 12:23:17;;;;;;;7.13;2.10;;;31.80;36.80;;;;;;4955353;29;20086;-83
2022/05/11 12:25:52;;;;;;;5.90;1.50;;;31.90;36.60;;;;;;4956336;29;20039;-83
2022/05/11 12:28:28;;;;;;;8.48;1.67;;;32.30;37.20;;;;;;4939199;29;20110;-89
2022/05/11 12:30:54;;;;;;;7.57;1.85;;;32.40;36.10;;;;;;4956203;29;20058;-86
2022/05/11 12:33:30;;;;;;;11.65;2.00;;;32.30;37.40;;;;;;4956382;29;20065;-84
2022/05/11 12:35:56;;;;;;;7.60;1.70;;;32.20;36.50;;;;;;4939344;29;20126;-83
2022/05/11 12:38:41;;;;;;;11.73;2.42;;;31.60;36.70;;;;;;4939252;29;20035;-84
2022/05/11 12:41:19;;;;;;;12.38;1.98;;;31.30;37.20;;;;;;4939142;29;20050;-85
2022/05/11 12:44:12;;;;;;;7.20;1.80;;;31.30;35.10;;;;;;4938858;29;20134;-84
2022/05/11 12:46:42;;;;;;;8.15;1.58;;;31.00;35.10;;;;;;4862357;29;20156;-87
2022/05/11 12:49:14;;;;;;;7.85;1.40;;;30.60;36.20;;;;;;4877911;29;20518;-82
2022/05/11 12:51:51;;;;;;;6.53;1.73;;;30.40;36.00;;;;;;4878164;29;20526;-82
2022/05/11 12:54:20;;;;;;;10.63;2.22;;;30.30;36.00;;;;;;4862602;29;20562;-85
2022/05/11 12:57:00;;;;;;;9.43;1.60;;;30.40;36.20;;;;;;4862547;29;20135;-83
2022/05/11 12:59:32;;;;;;;11.95;2.08;;;30.50;37.00;;;;;;4862345;29;20447;-84
2022/05/11 13:02:16;;;;;;;14.88;2.05;;;30.60;36.90;;;;;;4862732;29;20049;-83
2022/05/11 13:04:53;;;;;;;8.65;1.95;;;30.90;36.60;;;;;;4877238;29;20120;-86
2022/05/11 13:07:42;;;;;;;7.57;1.77;;;30.80;37.30;;;;;;4862318;29;20056;-83
2022/05/11 13:10:16;;;;;;;8.05;1.80;;;30.60;37.70;;;;;;4877602;29;20411;-84
2022/05/11 13:12:49;;;;;;;11.60;2.00;;;30.20;38.60;;;;;;4862282;29;20084;-83
2022/05/11 13:15:49;;;;;;;10.95;2.65;;;29.90;38.80;;;;;;4877513;29;20446;-83
2022/05/11 13:18:26;;;;;;;11.60;2.03;;;29.20;40.00;;;;;;4861677;29;20049;-83
2022/05/11 13:20:54;;;;;;;9.38;2.25;;;28.40;41.20;;;;;;4862168;29;20052;-83
2022/05/11 13:23:46;;;;;;;8.70;1.73;;;27.70;41.50;;;;;;4893896;29;20141;-83
2022/05/11 13:26:38;;;;;;;7.38;1.85;;;27.10;42.20;;;;;;4955249;29;20039;-83
2022/05/11 13:29:26;;;;;;;8.68;2.25;;;26.70;43.60;;;;;;4955273;29;20058;-83
2022/05/11 13:32:06;;;;;;;9.20;2.35;;;26.90;44.30;;;;;;4954165;28;20042;-86
2022/05/11 13:34:37;;;;;;;12.68;2.08;;;27.30;43.50;;;;;;4938077;29;20043;-83
2022/05/11 13:37:04;;;;;;;8.40;2.17;;;27.30;43.30;;;;;;4955122;29;20054;-83
2022/05/11 13:39:37;;;;;;;9.20;1.90;;;27.20;43.30;;;;;;4937974;29;20125;-82
2022/05/11 13:42:27;;;;;;;9.35;2.20;;;27.00;43.70;;;;;;4937836;29;20039;-84
2022/05/11 13:45:04;;;;;;;10.95;1.88;;;26.90;43.50;;;;;;4876741;29;20128;-84